sensor_id;sensor_type;location;lat;lon;timestamp;P1;durP1;ratioP1;P2;durP2;ratioP2
59649;SDS011;46162;57.568;25.814;2024-01-06T00:01:40;6.40;;;1.10;;
59649;SDS011;46162;57.568;25.814;2024-01-06T00:04:09;5.25;;;1.50;;
59649;SDS011;46162;57.568;25.814;2024-01-06T00:06:37;7.32;;;1.50;;
59649;SDS011;46162;57.568;25.814;2024-01-06T00:09:08;7.25;;;1.95;;
59649;SDS011;46162;57.568;25.814;2024-01-06T00:11:37;8.05;;;1.98;;
59649;SDS011;46162;57.568;25.814;2024-01-06T00:14:05;8.20;;;1.85;;
59649;SDS011;46162;57.568;25.814;2024-01-06T00:16:34;5.10;;;1.13;;
59649;SDS011;46162;57.568;25.814;2024-01-06T00:19:03;7.78;;;1.63;;
59649;SDS011;46162;57.568;25.814;2024-01-06T00:21:31;4.88;;;1.30;;
59649;SDS011;46162;57.568;25.814;2024-01-06T00:24:00;6.32;;;1.10;;
59649;SDS011;46162;57.568;25.814;2024-01-06T00:26:30;5.53;;;1.42;;
59649;SDS011;46162;57.568;25.814;2024-01-06T00:28:59;9.55;;;1.65;;
59649;SDS011;46162;57.568;25.814;2024-01-06T00:31:28;7.63;;;1.75;;
59649;SDS011;46162;57.568;25.814;2024-01-06T00:33:56;8.35;;;2.05;;
59649;SDS011;46162;57.568;25.814;2024-01-06T00:36:25;5.80;;;1.17;;
59649;SDS011;46162;57.568;25.814;2024-01-06T00:38:54;7.65;;;1.90;;
59649;SDS011;46162;57.568;25.814;2024-01-06T00:41:22;6.00;;;1.48;;
59649;SDS011;46162;57.568;25.814;2024-01-06T00:43:52;4.38;;;1.27;;
59649;SDS011;46162;57.568;25.814;2024-01-06T00:46:21;5.65;;;1.25;;
59649;SDS011;46162;57.568;25.814;2024-01-06T00:48:49;7.15;;;1.60;;
59649;SDS011;46162;57.568;25.814;2024-01-06T00:51:18;8.25;;;2.22;;
59649;SDS011;46162;57.568;25.814;2024-01-06T00:53:47;7.22;;;1.92;;
59649;SDS011;46162;57.568;25.814;2024-01-06T00:56:15;7.70;;;1.75;;
59649;SDS011;46162;57.568;25.814;2024-01-06T00:58:44;7.65;;;1.73;;
59649;SDS011;46162;57.568;25.814;2024-01-06T01:01:14;7.13;;;1.65;;
59649;SDS011;46162;57.568;25.814;2024-01-06T01:03:43;10.35;;;2.00;;
59649;SDS011;46162;57.568;25.814;2024-01-06T01:06:12;4.18;;;0.95;;
59649;SDS011;46162;57.568;25.814;2024-01-06T01:08:40;7.57;;;1.58;;
59649;SDS011;46162;57.568;25.814;2024-01-06T01:11:09;6.80;;;1.23;;
59649;SDS011;46162;57.568;25.814;2024-01-06T01:13:38;6.95;;;1.85;;
59649;SDS011;46162;57.568;25.814;2024-01-06T01:16:06;5.88;;;1.75;;
59649;SDS011;46162;57.568;25.814;2024-01-06T01:18:36;7.90;;;2.03;;
59649;SDS011;46162;57.568;25.814;2024-01-06T01:21:05;6.30;;;1.60;;
59649;SDS011;46162;57.568;25.814;2024-01-06T01:23:34;5.95;;;1.23;;
59649;SDS011;46162;57.568;25.814;2024-01-06T01:26:03;6.35;;;1.55;;
59649;SDS011;46162;57.568;25.814;2024-01-06T01:28:32;6.60;;;1.60;;
59649;SDS011;46162;57.568;25.814;2024-01-06T01:31:00;10.27;;;2.95;;
59649;SDS011;46162;57.568;25.814;2024-01-06T01:33:29;8.18;;;1.75;;
59649;SDS011;46162;57.568;25.814;2024-01-06T01:35:59;7.13;;;1.58;;
59649;SDS011;46162;57.568;25.814;2024-01-06T01:40:57;5.13;;;1.15;;
59649;SDS011;46162;57.568;25.814;2024-01-06T01:43:26;6.43;;;1.35;;
59649;SDS011;46162;57.568;25.814;2024-01-06T01:45:55;7.38;;;1.63;;
59649;SDS011;46162;57.568;25.814;2024-01-06T01:48:25;6.90;;;1.52;;
59649;SDS011;46162;57.568;25.814;2024-01-06T01:50:54;5.88;;;1.63;;
59649;SDS011;46162;57.568;25.814;2024-01-06T01:53:24;6.95;;;1.92;;
59649;SDS011;46162;57.568;25.814;2024-01-06T01:55:54;4.63;;;1.27;;
59649;SDS011;46162;57.568;25.814;2024-01-06T01:58:23;5.95;;;1.50;;
59649;SDS011;46162;57.568;25.814;2024-01-06T02:00:52;8.43;;;1.38;;
59649;SDS011;46162;57.568;25.814;2024-01-06T02:03:22;5.03;;;1.33;;
59649;SDS011;46162;57.568;25.814;2024-01-06T02:05:52;9.85;;;2.20;;
59649;SDS011;46162;57.568;25.814;2024-01-06T02:08:20;13.05;;;2.25;;
59649;SDS011;46162;57.568;25.814;2024-01-06T02:10:51;7.05;;;2.00;;
59649;SDS011;46162;57.568;25.814;2024-01-06T02:13:22;6.25;;;1.23;;
59649;SDS011;46162;57.568;25.814;2024-01-06T02:15:51;7.20;;;1.75;;
59649;SDS011;46162;57.568;25.814;2024-01-06T02:18:20;9.18;;;2.40;;
59649;SDS011;46162;57.568;25.814;2024-01-06T02:20:49;7.95;;;2.15;;
59649;SDS011;46162;57.568;25.814;2024-01-06T02:23:22;6.35;;;1.65;;
59649;SDS011;46162;57.568;25.814;2024-01-06T02:25:51;7.07;;;2.20;;
59649;SDS011;46162;57.568;25.814;2024-01-06T02:28:19;7.35;;;1.80;;
59649;SDS011;46162;57.568;25.814;2024-01-06T02:30:49;7.93;;;1.83;;
59649;SDS011;46162;57.568;25.814;2024-01-06T02:33:18;5.78;;;2.08;;
59649;SDS011;46162;57.568;25.814;2024-01-06T02:35:47;5.35;;;1.52;;
59649;SDS011;46162;57.568;25.814;2024-01-06T02:38:16;4.85;;;1.60;;
59649;SDS011;46162;57.568;25.814;2024-01-06T02:40:46;5.88;;;1.42;;
59649;SDS011;46162;57.568;25.814;2024-01-06T02:43:15;7.68;;;1.88;;
59649;SDS011;46162;57.568;25.814;2024-01-06T02:45:43;7.65;;;2.17;;
59649;SDS011;46162;57.568;25.814;2024-01-06T02:48:13;10.00;;;2.78;;
59649;SDS011;46162;57.568;25.814;2024-01-06T02:50:42;7.53;;;2.30;;
59649;SDS011;46162;57.568;25.814;2024-01-06T02:53:11;6.53;;;2.55;;
59649;SDS011;46162;57.568;25.814;2024-01-06T02:55:40;6.82;;;1.90;;
59649;SDS011;46162;57.568;25.814;2024-01-06T02:58:10;6.03;;;1.73;;
59649;SDS011;46162;57.568;25.814;2024-01-06T03:00:39;8.10;;;2.40;;
59649;SDS011;46162;57.568;25.814;2024-01-06T03:03:08;8.13;;;2.05;;
59649;SDS011;46162;57.568;25.814;2024-01-06T03:05:36;10.13;;;2.50;;
59649;SDS011;46162;57.568;25.814;2024-01-06T03:08:05;7.80;;;2.08;;
59649;SDS011;46162;57.568;25.814;2024-01-06T03:10:34;7.38;;;2.35;;
59649;SDS011;46162;57.568;25.814;2024-01-06T03:13:03;9.07;;;2.17;;
59649;SDS011;46162;57.568;25.814;2024-01-06T03:15:33;6.60;;;2.17;;
59649;SDS011;46162;57.568;25.814;2024-01-06T03:18:02;8.43;;;2.22;;
59649;SDS011;46162;57.568;25.814;2024-01-06T03:20:31;5.45;;;1.70;;
59649;SDS011;46162;57.568;25.814;2024-01-06T03:23:00;6.85;;;1.80;;
59649;SDS011;46162;57.568;25.814;2024-01-06T03:25:28;7.63;;;1.95;;
59649;SDS011;46162;57.568;25.814;2024-01-06T03:27:57;7.85;;;1.83;;
59649;SDS011;46162;57.568;25.814;2024-01-06T03:30:25;7.72;;;1.65;;
59649;SDS011;46162;57.568;25.814;2024-01-06T03:32:56;6.35;;;1.70;;
59649;SDS011;46162;57.568;25.814;2024-01-06T03:35:25;6.63;;;1.42;;
59649;SDS011;46162;57.568;25.814;2024-01-06T03:37:53;9.55;;;1.83;;
59649;SDS011;46162;57.568;25.814;2024-01-06T03:40:22;7.43;;;1.38;;
59649;SDS011;46162;57.568;25.814;2024-01-06T03:42:51;6.55;;;1.88;;
59649;SDS011;46162;57.568;25.814;2024-01-06T03:45:20;8.88;;;2.13;;
59649;SDS011;46162;57.568;25.814;2024-01-06T03:47:49;8.70;;;1.92;;
59649;SDS011;46162;57.568;25.814;2024-01-06T03:50:19;6.45;;;2.00;;
59649;SDS011;46162;57.568;25.814;2024-01-06T03:52:48;6.47;;;1.35;;
59649;SDS011;46162;57.568;25.814;2024-01-06T03:55:17;5.25;;;1.35;;
59649;SDS011;46162;57.568;25.814;2024-01-06T03:57:45;5.13;;;1.63;;
59649;SDS011;46162;57.568;25.814;2024-01-06T04:00:15;6.15;;;1.40;;
59649;SDS011;46162;57.568;25.814;2024-01-06T04:02:44;6.43;;;1.83;;
59649;SDS011;46162;57.568;25.814;2024-01-06T04:05:17;10.32;;;1.70;;
59649;SDS011;46162;57.568;25.814;2024-01-06T04:07:47;8.90;;;1.60;;
59649;SDS011;46162;57.568;25.814;2024-01-06T04:12:45;9.05;;;2.00;;
59649;SDS011;46162;57.568;25.814;2024-01-06T04:15:14;6.88;;;1.52;;
59649;SDS011;46162;57.568;25.814;2024-01-06T04:17:48;5.55;;;1.25;;
59649;SDS011;46162;57.568;25.814;2024-01-06T04:20:20;10.27;;;1.88;;
59649;SDS011;46162;57.568;25.814;2024-01-06T04:22:50;5.47;;;1.65;;
59649;SDS011;46162;57.568;25.814;2024-01-06T04:27:48;8.65;;;1.42;;
59649;SDS011;46162;57.568;25.814;2024-01-06T04:30:17;7.97;;;2.10;;
59649;SDS011;46162;57.568;25.814;2024-01-06T04:32:47;6.70;;;1.83;;
59649;SDS011;46162;57.568;25.814;2024-01-06T04:35:17;6.95;;;2.15;;
59649;SDS011;46162;57.568;25.814;2024-01-06T04:37:46;6.85;;;2.22;;
59649;SDS011;46162;57.568;25.814;2024-01-06T04:40:16;5.20;;;1.50;;
59649;SDS011;46162;57.568;25.814;2024-01-06T04:42:48;8.90;;;2.08;;
59649;SDS011;46162;57.568;25.814;2024-01-06T04:45:17;7.32;;;1.38;;
59649;SDS011;46162;57.568;25.814;2024-01-06T04:47:47;7.07;;;2.40;;
59649;SDS011;46162;57.568;25.814;2024-01-06T04:50:16;6.15;;;1.85;;
59649;SDS011;46162;57.568;25.814;2024-01-06T04:52:46;9.70;;;2.08;;
59649;SDS011;46162;57.568;25.814;2024-01-06T04:55:16;6.00;;;1.70;;
59649;SDS011;46162;57.568;25.814;2024-01-06T04:57:48;7.50;;;2.13;;
59649;SDS011;46162;57.568;25.814;2024-01-06T05:00:17;7.80;;;2.38;;
59649;SDS011;46162;57.568;25.814;2024-01-06T05:02:47;7.20;;;2.20;;
59649;SDS011;46162;57.568;25.814;2024-01-06T05:05:16;9.93;;;2.10;;
59649;SDS011;46162;57.568;25.814;2024-01-06T05:07:48;8.10;;;2.70;;
59649;SDS011;46162;57.568;25.814;2024-01-06T05:10:18;10.20;;;3.00;;
59649;SDS011;46162;57.568;25.814;2024-01-06T05:12:53;10.07;;;3.22;;
59649;SDS011;46162;57.568;25.814;2024-01-06T05:15:22;8.02;;;2.83;;
59649;SDS011;46162;57.568;25.814;2024-01-06T05:17:54;9.18;;;3.28;;
59649;SDS011;46162;57.568;25.814;2024-01-06T05:20:23;9.97;;;2.90;;
59649;SDS011;46162;57.568;25.814;2024-01-06T05:22:52;11.63;;;2.95;;
59649;SDS011;46162;57.568;25.814;2024-01-06T05:25:29;10.52;;;3.53;;
59649;SDS011;46162;57.568;25.814;2024-01-06T05:27:59;12.27;;;2.70;;
59649;SDS011;46162;57.568;25.814;2024-01-06T05:30:30;10.27;;;2.70;;
59649;SDS011;46162;57.568;25.814;2024-01-06T05:33:01;8.88;;;2.50;;
59649;SDS011;46162;57.568;25.814;2024-01-06T05:35:30;9.25;;;3.08;;
59649;SDS011;46162;57.568;25.814;2024-01-06T05:38:00;10.32;;;2.63;;
59649;SDS011;46162;57.568;25.814;2024-01-06T05:40:34;11.68;;;3.58;;
59649;SDS011;46162;57.568;25.814;2024-01-06T05:43:03;11.13;;;2.72;;
59649;SDS011;46162;57.568;25.814;2024-01-06T05:45:33;13.00;;;2.80;;
59649;SDS011;46162;57.568;25.814;2024-01-06T05:48:09;8.60;;;2.28;;
59649;SDS011;46162;57.568;25.814;2024-01-06T05:50:38;7.78;;;2.10;;
59649;SDS011;46162;57.568;25.814;2024-01-06T05:53:07;9.07;;;2.88;;
59649;SDS011;46162;57.568;25.814;2024-01-06T05:55:39;9.17;;;2.67;;
59649;SDS011;46162;57.568;25.814;2024-01-06T05:58:11;7.25;;;1.85;;
59649;SDS011;46162;57.568;25.814;2024-01-06T06:00:40;13.95;;;3.15;;
59649;SDS011;46162;57.568;25.814;2024-01-06T06:03:09;11.88;;;2.85;;
59649;SDS011;46162;57.568;25.814;2024-01-06T06:05:39;10.38;;;2.97;;
59649;SDS011;46162;57.568;25.814;2024-01-06T06:08:14;9.40;;;2.67;;
59649;SDS011;46162;57.568;25.814;2024-01-06T06:10:45;10.38;;;2.47;;
59649;SDS011;46162;57.568;25.814;2024-01-06T06:13:29;7.45;;;2.53;;
59649;SDS011;46162;57.568;25.814;2024-01-06T06:15:58;8.95;;;3.10;;
59649;SDS011;46162;57.568;25.814;2024-01-06T06:18:27;9.68;;;2.95;;
59649;SDS011;46162;57.568;25.814;2024-01-06T06:20:56;9.60;;;3.08;;
59649;SDS011;46162;57.568;25.814;2024-01-06T06:23:25;11.32;;;2.97;;
59649;SDS011;46162;57.568;25.814;2024-01-06T06:25:56;8.43;;;2.28;;
59649;SDS011;46162;57.568;25.814;2024-01-06T06:28:28;10.07;;;2.83;;
59649;SDS011;46162;57.568;25.814;2024-01-06T06:30:57;12.30;;;3.33;;
59649;SDS011;46162;57.568;25.814;2024-01-06T06:33:26;15.30;;;3.80;;
59649;SDS011;46162;57.568;25.814;2024-01-06T06:36:00;14.38;;;4.82;;
59649;SDS011;46162;57.568;25.814;2024-01-06T06:38:29;12.70;;;4.03;;
59649;SDS011;46162;57.568;25.814;2024-01-06T06:41:00;12.43;;;3.88;;
59649;SDS011;46162;57.568;25.814;2024-01-06T06:43:30;10.52;;;2.75;;
59649;SDS011;46162;57.568;25.814;2024-01-06T06:45:59;14.18;;;4.78;;
59649;SDS011;46162;57.568;25.814;2024-01-06T06:48:28;25.75;;;9.02;;
59649;SDS011;46162;57.568;25.814;2024-01-06T06:51:03;13.73;;;3.55;;
59649;SDS011;46162;57.568;25.814;2024-01-06T06:53:32;10.98;;;2.92;;
59649;SDS011;46162;57.568;25.814;2024-01-06T06:56:05;10.63;;;2.95;;
59649;SDS011;46162;57.568;25.814;2024-01-06T06:58:35;10.95;;;3.42;;
59649;SDS011;46162;57.568;25.814;2024-01-06T07:01:04;10.60;;;2.92;;
59649;SDS011;46162;57.568;25.814;2024-01-06T07:03:33;10.52;;;3.30;;
59649;SDS011;46162;57.568;25.814;2024-01-06T07:06:05;8.38;;;2.40;;
59649;SDS011;46162;57.568;25.814;2024-01-06T07:08:34;10.23;;;3.17;;
59649;SDS011;46162;57.568;25.814;2024-01-06T07:11:08;9.15;;;1.77;;
59649;SDS011;46162;57.568;25.814;2024-01-06T07:13:38;8.80;;;2.15;;
59649;SDS011;46162;57.568;25.814;2024-01-06T07:16:08;7.45;;;2.00;;
59649;SDS011;46162;57.568;25.814;2024-01-06T07:18:45;8.60;;;2.00;;
59649;SDS011;46162;57.568;25.814;2024-01-06T07:21:14;11.07;;;3.30;;
59649;SDS011;46162;57.568;25.814;2024-01-06T07:23:43;8.35;;;2.25;;
59649;SDS011;46162;57.568;25.814;2024-01-06T07:26:15;8.88;;;2.65;;
59649;SDS011;46162;57.568;25.814;2024-01-06T07:28:44;8.90;;;2.35;;
59649;SDS011;46162;57.568;25.814;2024-01-06T07:31:14;12.90;;;3.67;;
59649;SDS011;46162;57.568;25.814;2024-01-06T07:33:46;7.82;;;2.00;;
59649;SDS011;46162;57.568;25.814;2024-01-06T07:36:15;7.68;;;1.98;;
59649;SDS011;46162;57.568;25.814;2024-01-06T07:38:44;8.75;;;2.67;;
59649;SDS011;46162;57.568;25.814;2024-01-06T07:41:19;11.45;;;2.72;;
59649;SDS011;46162;57.568;25.814;2024-01-06T07:43:52;12.82;;;3.50;;
59649;SDS011;46162;57.568;25.814;2024-01-06T07:46:21;7.00;;;1.67;;
59649;SDS011;46162;57.568;25.814;2024-01-06T07:48:51;8.32;;;2.13;;
59649;SDS011;46162;57.568;25.814;2024-01-06T07:51:21;9.10;;;2.20;;
59649;SDS011;46162;57.568;25.814;2024-01-06T07:53:49;8.32;;;1.77;;
59649;SDS011;46162;57.568;25.814;2024-01-06T07:56:20;6.65;;;1.90;;
59649;SDS011;46162;57.568;25.814;2024-01-06T08:01:17;10.80;;;2.92;;
59649;SDS011;46162;57.568;25.814;2024-01-06T08:03:47;6.78;;;1.75;;
59649;SDS011;46162;57.568;25.814;2024-01-06T08:06:16;6.72;;;1.75;;
59649;SDS011;46162;57.568;25.814;2024-01-06T08:08:45;11.23;;;2.63;;
59649;SDS011;46162;57.568;25.814;2024-01-06T08:11:14;8.30;;;2.28;;
59649;SDS011;46162;57.568;25.814;2024-01-06T08:13:45;10.25;;;2.40;;
59649;SDS011;46162;57.568;25.814;2024-01-06T08:16:14;11.40;;;2.83;;
59649;SDS011;46162;57.568;25.814;2024-01-06T08:18:43;8.23;;;2.45;;
59649;SDS011;46162;57.568;25.814;2024-01-06T08:21:18;8.95;;;2.38;;
59649;SDS011;46162;57.568;25.814;2024-01-06T08:23:53;8.20;;;2.55;;
59649;SDS011;46162;57.568;25.814;2024-01-06T08:26:24;10.77;;;2.22;;
59649;SDS011;46162;57.568;25.814;2024-01-06T08:28:55;8.93;;;2.08;;
59649;SDS011;46162;57.568;25.814;2024-01-06T08:31:25;8.30;;;2.50;;
59649;SDS011;46162;57.568;25.814;2024-01-06T08:33:57;9.57;;;2.80;;
59649;SDS011;46162;57.568;25.814;2024-01-06T08:36:26;8.33;;;2.30;;
59649;SDS011;46162;57.568;25.814;2024-01-06T08:39:01;11.15;;;3.17;;
59649;SDS011;46162;57.568;25.814;2024-01-06T08:41:30;13.85;;;4.00;;
59649;SDS011;46162;57.568;25.814;2024-01-06T08:44:01;12.20;;;3.35;;
59649;SDS011;46162;57.568;25.814;2024-01-06T08:46:33;15.05;;;4.07;;
59649;SDS011;46162;57.568;25.814;2024-01-06T08:49:02;15.60;;;4.95;;
59649;SDS011;46162;57.568;25.814;2024-01-06T08:51:31;17.08;;;4.55;;
59649;SDS011;46162;57.568;25.814;2024-01-06T08:54:03;18.23;;;4.90;;
59649;SDS011;46162;57.568;25.814;2024-01-06T08:56:33;12.23;;;4.10;;
59649;SDS011;46162;57.568;25.814;2024-01-06T08:59:07;13.48;;;3.83;;
59649;SDS011;46162;57.568;25.814;2024-01-06T09:01:42;11.52;;;3.33;;
59649;SDS011;46162;57.568;25.814;2024-01-06T09:04:15;12.77;;;4.45;;
59649;SDS011;46162;57.568;25.814;2024-01-06T09:06:46;11.52;;;4.65;;
59649;SDS011;46162;57.568;25.814;2024-01-06T09:09:21;16.40;;;6.03;;
59649;SDS011;46162;57.568;25.814;2024-01-06T09:11:53;15.95;;;4.85;;
59649;SDS011;46162;57.568;25.814;2024-01-06T09:14:24;11.98;;;3.92;;
59649;SDS011;46162;57.568;25.814;2024-01-06T09:19:27;22.35;;;6.15;;
59649;SDS011;46162;57.568;25.814;2024-01-06T09:21:59;13.18;;;3.78;;
59649;SDS011;46162;57.568;25.814;2024-01-06T09:24:32;20.25;;;5.22;;
59649;SDS011;46162;57.568;25.814;2024-01-06T09:27:03;17.38;;;4.38;;
59649;SDS011;46162;57.568;25.814;2024-01-06T09:29:37;20.80;;;6.85;;
59649;SDS011;46162;57.568;25.814;2024-01-06T09:32:09;29.30;;;8.75;;
59649;SDS011;46162;57.568;25.814;2024-01-06T09:34:43;19.60;;;6.35;;
59649;SDS011;46162;57.568;25.814;2024-01-06T09:37:19;14.85;;;5.05;;
59649;SDS011;46162;57.568;25.814;2024-01-06T09:39:51;21.10;;;6.47;;
59649;SDS011;46162;57.568;25.814;2024-01-06T09:42:20;13.13;;;4.67;;
59649;SDS011;46162;57.568;25.814;2024-01-06T09:45:03;17.63;;;5.60;;
59649;SDS011;46162;57.568;25.814;2024-01-06T09:47:35;18.98;;;5.28;;
59649;SDS011;46162;57.568;25.814;2024-01-06T09:50:08;16.52;;;6.10;;
59649;SDS011;46162;57.568;25.814;2024-01-06T09:52:42;14.68;;;4.53;;
59649;SDS011;46162;57.568;25.814;2024-01-06T09:55:23;18.92;;;6.75;;
59649;SDS011;46162;57.568;25.814;2024-01-06T09:57:55;22.02;;;5.00;;
59649;SDS011;46162;57.568;25.814;2024-01-06T10:00:26;17.30;;;5.57;;
59649;SDS011;46162;57.568;25.814;2024-01-06T10:03:00;19.55;;;4.97;;
59649;SDS011;46162;57.568;25.814;2024-01-06T10:05:35;15.70;;;4.28;;
59649;SDS011;46162;57.568;25.814;2024-01-06T10:08:13;14.88;;;3.97;;
59649;SDS011;46162;57.568;25.814;2024-01-06T10:10:45;14.23;;;4.75;;
59649;SDS011;46162;57.568;25.814;2024-01-06T10:13:20;11.57;;;3.05;;
59649;SDS011;46162;57.568;25.814;2024-01-06T10:18:41;12.77;;;3.08;;
59649;SDS011;46162;57.568;25.814;2024-01-06T10:21:10;8.65;;;2.67;;
59649;SDS011;46162;57.568;25.814;2024-01-06T10:23:39;14.30;;;4.22;;
59649;SDS011;46162;57.568;25.814;2024-01-06T10:28:40;9.82;;;2.60;;
59649;SDS011;46162;57.568;25.814;2024-01-06T10:31:09;10.35;;;3.80;;
59649;SDS011;46162;57.568;25.814;2024-01-06T10:33:41;7.20;;;2.57;;
59649;SDS011;46162;57.568;25.814;2024-01-06T10:36:10;8.85;;;2.47;;
59649;SDS011;46162;57.568;25.814;2024-01-06T10:38:39;8.88;;;2.70;;
59649;SDS011;46162;57.568;25.814;2024-01-06T10:41:08;12.17;;;3.47;;
59649;SDS011;46162;57.568;25.814;2024-01-06T10:43:39;8.48;;;2.80;;
59649;SDS011;46162;57.568;25.814;2024-01-06T10:46:10;11.60;;;3.80;;
59649;SDS011;46162;57.568;25.814;2024-01-06T10:48:42;9.75;;;2.90;;
59649;SDS011;46162;57.568;25.814;2024-01-06T10:51:13;12.02;;;3.17;;
59649;SDS011;46162;57.568;25.814;2024-01-06T10:53:42;8.07;;;2.33;;
59649;SDS011;46162;57.568;25.814;2024-01-06T10:56:11;11.85;;;3.85;;
59649;SDS011;46162;57.568;25.814;2024-01-06T10:58:40;11.60;;;3.42;;
59649;SDS011;46162;57.568;25.814;2024-01-06T11:01:15;15.07;;;4.15;;
59649;SDS011;46162;57.568;25.814;2024-01-06T11:03:52;10.48;;;2.95;;
59649;SDS011;46162;57.568;25.814;2024-01-06T11:06:23;16.02;;;3.58;;
59649;SDS011;46162;57.568;25.814;2024-01-06T11:08:56;10.10;;;3.60;;
59649;SDS011;46162;57.568;25.814;2024-01-06T11:11:29;11.07;;;2.95;;
59649;SDS011;46162;57.568;25.814;2024-01-06T11:16:46;12.02;;;3.83;;
59649;SDS011;46162;57.568;25.814;2024-01-06T11:22:26;10.80;;;3.20;;
59649;SDS011;46162;57.568;25.814;2024-01-06T11:25:03;11.70;;;3.47;;
59649;SDS011;46162;57.568;25.814;2024-01-06T11:27:35;9.27;;;2.58;;
59649;SDS011;46162;57.568;25.814;2024-01-06T11:30:04;12.57;;;3.80;;
59649;SDS011;46162;57.568;25.814;2024-01-06T11:32:35;13.98;;;3.80;;
59649;SDS011;46162;57.568;25.814;2024-01-06T11:35:10;11.25;;;2.70;;
59649;SDS011;46162;57.568;25.814;2024-01-06T11:37:50;9.77;;;3.05;;
59649;SDS011;46162;57.568;25.814;2024-01-06T11:40:23;7.00;;;2.58;;
59649;SDS011;46162;57.568;25.814;2024-01-06T11:43:03;12.93;;;2.58;;
59649;SDS011;46162;57.568;25.814;2024-01-06T11:45:33;8.80;;;2.70;;
59649;SDS011;46162;57.568;25.814;2024-01-06T11:48:03;10.57;;;3.50;;
59649;SDS011;46162;57.568;25.814;2024-01-06T11:50:35;7.63;;;2.28;;
59649;SDS011;46162;57.568;25.814;2024-01-06T11:53:05;9.50;;;2.88;;
59649;SDS011;46162;57.568;25.814;2024-01-06T11:55:38;6.78;;;2.60;;
59649;SDS011;46162;57.568;25.814;2024-01-06T11:58:07;8.38;;;3.08;;
59649;SDS011;46162;57.568;25.814;2024-01-06T12:00:35;14.57;;;3.20;;
59649;SDS011;46162;57.568;25.814;2024-01-06T12:03:09;9.23;;;1.95;;
59649;SDS011;46162;57.568;25.814;2024-01-06T12:05:39;13.85;;;3.08;;
59649;SDS011;46162;57.568;25.814;2024-01-06T12:08:08;10.02;;;2.40;;
59649;SDS011;46162;57.568;25.814;2024-01-06T12:10:36;9.07;;;2.38;;
59649;SDS011;46162;57.568;25.814;2024-01-06T12:13:06;10.27;;;3.97;;
59649;SDS011;46162;57.568;25.814;2024-01-06T12:15:38;12.43;;;3.03;;
59649;SDS011;46162;57.568;25.814;2024-01-06T12:18:07;11.85;;;3.13;;
59649;SDS011;46162;57.568;25.814;2024-01-06T12:20:36;9.93;;;3.58;;
59649;SDS011;46162;57.568;25.814;2024-01-06T12:23:09;8.38;;;2.63;;
59649;SDS011;46162;57.568;25.814;2024-01-06T12:25:37;10.00;;;3.20;;
59649;SDS011;46162;57.568;25.814;2024-01-06T12:28:06;13.52;;;3.60;;
59649;SDS011;46162;57.568;25.814;2024-01-06T12:30:36;8.25;;;2.67;;
59649;SDS011;46162;57.568;25.814;2024-01-06T12:33:09;7.78;;;2.97;;
59649;SDS011;46162;57.568;25.814;2024-01-06T12:35:40;6.03;;;2.55;;
59649;SDS011;46162;57.568;25.814;2024-01-06T12:38:09;13.00;;;2.33;;
59649;SDS011;46162;57.568;25.814;2024-01-06T12:40:37;9.73;;;2.63;;
59649;SDS011;46162;57.568;25.814;2024-01-06T12:43:08;10.90;;;2.92;;
59649;SDS011;46162;57.568;25.814;2024-01-06T12:45:37;11.82;;;2.72;;
59649;SDS011;46162;57.568;25.814;2024-01-06T12:48:06;11.82;;;3.65;;
59649;SDS011;46162;57.568;25.814;2024-01-06T12:50:36;10.65;;;3.92;;
59649;SDS011;46162;57.568;25.814;2024-01-06T12:53:06;20.00;;;6.03;;
59649;SDS011;46162;57.568;25.814;2024-01-06T12:55:34;16.83;;;5.22;;
59649;SDS011;46162;57.568;25.814;2024-01-06T12:58:03;13.57;;;4.38;;
59649;SDS011;46162;57.568;25.814;2024-01-06T13:00:32;19.85;;;6.20;;
59649;SDS011;46162;57.568;25.814;2024-01-06T13:03:03;13.98;;;4.75;;
59649;SDS011;46162;57.568;25.814;2024-01-06T13:05:32;19.10;;;6.03;;
59649;SDS011;46162;57.568;25.814;2024-01-06T13:08:01;41.53;;;16.98;;
59649;SDS011;46162;57.568;25.814;2024-01-06T13:10:32;99.78;;;36.25;;
59649;SDS011;46162;57.568;25.814;2024-01-06T13:13:01;77.18;;;26.88;;
59649;SDS011;46162;57.568;25.814;2024-01-06T13:15:30;65.38;;;23.25;;
59649;SDS011;46162;57.568;25.814;2024-01-06T13:17:58;46.78;;;16.58;;
59649;SDS011;46162;57.568;25.814;2024-01-06T13:20:27;55.88;;;21.17;;
59649;SDS011;46162;57.568;25.814;2024-01-06T13:22:56;56.25;;;22.42;;
59649;SDS011;46162;57.568;25.814;2024-01-06T13:25:24;48.53;;;18.10;;
59649;SDS011;46162;57.568;25.814;2024-01-06T13:27:56;67.00;;;24.25;;
59649;SDS011;46162;57.568;25.814;2024-01-06T13:30:25;91.03;;;34.63;;
59649;SDS011;46162;57.568;25.814;2024-01-06T13:32:54;63.50;;;24.52;;
59649;SDS011;46162;57.568;25.814;2024-01-06T13:35:23;24.70;;;9.57;;
59649;SDS011;46162;57.568;25.814;2024-01-06T13:37:52;16.17;;;4.53;;
59649;SDS011;46162;57.568;25.814;2024-01-06T13:40:22;16.70;;;5.25;;
59649;SDS011;46162;57.568;25.814;2024-01-06T13:42:51;12.45;;;3.50;;
59649;SDS011;46162;57.568;25.814;2024-01-06T13:45:23;13.60;;;3.08;;
59649;SDS011;46162;57.568;25.814;2024-01-06T13:47:52;7.82;;;2.63;;
59649;SDS011;46162;57.568;25.814;2024-01-06T13:50:21;11.05;;;3.35;;
59649;SDS011;46162;57.568;25.814;2024-01-06T13:52:49;16.40;;;5.85;;
59649;SDS011;46162;57.568;25.814;2024-01-06T13:55:18;14.48;;;4.68;;
59649;SDS011;46162;57.568;25.814;2024-01-06T13:57:47;12.52;;;2.80;;
59649;SDS011;46162;57.568;25.814;2024-01-06T14:00:16;12.50;;;3.30;;
59649;SDS011;46162;57.568;25.814;2024-01-06T14:02:48;12.30;;;2.97;;
59649;SDS011;46162;57.568;25.814;2024-01-06T14:07:46;12.05;;;4.22;;
59649;SDS011;46162;57.568;25.814;2024-01-06T14:10:17;10.30;;;3.30;;
59649;SDS011;46162;57.568;25.814;2024-01-06T14:12:47;11.10;;;3.15;;
59649;SDS011;46162;57.568;25.814;2024-01-06T14:15:16;10.98;;;3.63;;
59649;SDS011;46162;57.568;25.814;2024-01-06T14:17:46;10.95;;;3.40;;
59649;SDS011;46162;57.568;25.814;2024-01-06T14:20:18;8.45;;;2.78;;
59649;SDS011;46162;57.568;25.814;2024-01-06T14:22:47;8.70;;;2.22;;
59649;SDS011;46162;57.568;25.814;2024-01-06T14:25:16;9.52;;;1.80;;
59649;SDS011;46162;57.568;25.814;2024-01-06T14:27:45;8.02;;;2.38;;
59649;SDS011;46162;57.568;25.814;2024-01-06T14:30:14;8.40;;;1.95;;
59649;SDS011;46162;57.568;25.814;2024-01-06T14:32:43;8.50;;;2.45;;
59649;SDS011;46162;57.568;25.814;2024-01-06T14:35:12;8.00;;;1.63;;
59649;SDS011;46162;57.568;25.814;2024-01-06T14:37:45;7.13;;;1.70;;
59649;SDS011;46162;57.568;25.814;2024-01-06T14:40:14;6.50;;;1.48;;
59649;SDS011;46162;57.568;25.814;2024-01-06T14:42:43;8.57;;;2.33;;
59649;SDS011;46162;57.568;25.814;2024-01-06T14:45:12;13.43;;;3.15;;
59649;SDS011;46162;57.568;25.814;2024-01-06T14:47:41;8.75;;;2.17;;
59649;SDS011;46162;57.568;25.814;2024-01-06T14:50:10;7.82;;;1.90;;
59649;SDS011;46162;57.568;25.814;2024-01-06T14:52:39;6.35;;;1.75;;
59649;SDS011;46162;57.568;25.814;2024-01-06T14:55:10;11.45;;;2.63;;
59649;SDS011;46162;57.568;25.814;2024-01-06T14:57:38;9.57;;;2.22;;
59649;SDS011;46162;57.568;25.814;2024-01-06T15:00:08;11.63;;;2.72;;
59649;SDS011;46162;57.568;25.814;2024-01-06T15:02:37;8.05;;;2.13;;
59649;SDS011;46162;57.568;25.814;2024-01-06T15:05:06;6.85;;;1.98;;
59649;SDS011;46162;57.568;25.814;2024-01-06T15:07:36;12.65;;;2.60;;
59649;SDS011;46162;57.568;25.814;2024-01-06T15:10:05;9.30;;;2.45;;
59649;SDS011;46162;57.568;25.814;2024-01-06T15:12:38;7.63;;;1.70;;